createdAt,value
2019-03-26T00:00:04.432Z,1026.64
2019-03-26T00:10:03.966Z,1026.68
2019-03-26T00:20:03.599Z,1026.79
2019-03-26T00:30:03.968Z,1026.66
2019-03-26T00:40:03.677Z,1026.68
2019-03-26T00:50:03.300Z,1026.62
2019-03-26T01:00:04.154Z,1026.62
2019-03-26T01:10:02.899Z,1026.85
2019-03-26T01:20:03.563Z,1027.06
2019-03-26T01:30:04.126Z,1027.26
2019-03-26T01:40:04.006Z,1027.39
2019-03-26T01:50:04.049Z,1027.47
2019-03-26T02:00:04.218Z,1027.44
2019-03-26T02:10:02.980Z,1027.62
2019-03-26T02:20:03.694Z,1027.74
2019-03-26T02:30:04.206Z,1027.68
2019-03-26T02:40:03.308Z,1027.67
2019-03-26T02:50:02.989Z,1027.72
2019-03-26T03:00:04.518Z,1027.90
2019-03-26T03:10:03.714Z,1027.90
2019-03-26T03:20:03.902Z,1027.98
2019-03-26T03:30:04.648Z,1028.02
2019-03-26T03:40:03.061Z,1028.16
2019-03-26T03:50:03.953Z,1028.21
2019-03-26T04:00:03.956Z,1028.36
2019-03-26T04:10:03.837Z,1028.50
2019-03-26T04:20:03.602Z,1028.59
2019-03-26T04:30:04.778Z,1028.74
2019-03-26T04:40:03.717Z,1028.94
2019-03-26T04:50:03.819Z,1029.12
2019-03-26T05:00:03.831Z,1029.22
2019-03-26T05:10:03.494Z,1029.29
2019-03-26T05:20:03.819Z,1029.38
2019-03-26T05:30:03.870Z,1029.46
2019-03-26T05:40:03.963Z,1029.50
2019-03-26T05:50:03.207Z,1029.61
2019-03-26T06:00:04.764Z,1029.56
2019-03-26T06:10:03.190Z,1029.62
2019-03-26T06:20:03.295Z,1029.80
2019-03-26T06:30:03.888Z,1029.81
2019-03-26T06:40:03.498Z,1029.86
2019-03-26T06:50:02.952Z,1030.03
2019-03-26T07:00:06.963Z,1030.16
2019-03-26T07:10:03.546Z,1030.30
2019-03-26T07:20:03.791Z,1030.37
2019-03-26T07:30:03.625Z,1030.36
2019-03-26T07:40:03.133Z,1030.35
2019-03-26T07:50:03.641Z,1030.36
2019-03-26T08:00:04.637Z,1030.38
2019-03-26T08:10:03.695Z,1030.50
2019-03-26T08:20:03.685Z,1030.40
2019-03-26T08:30:04.112Z,1030.43
2019-03-26T08:40:04.447Z,1030.48
2019-03-26T08:50:03.885Z,1030.46
2019-03-26T09:00:04.207Z,1030.59
2019-03-26T09:10:03.210Z,1030.64
2019-03-26T09:20:03.314Z,1030.69
2019-03-26T09:30:04.172Z,1030.81
2019-03-26T09:40:03.453Z,1030.72
2019-03-26T09:50:03.253Z,1030.85
2019-03-26T10:00:04.521Z,1030.83
2019-03-26T10:10:02.970Z,1030.80
2019-03-26T10:20:03.334Z,1030.72
2019-03-26T10:30:06.878Z,1030.69
2019-03-26T10:40:03.369Z,1030.48
2019-03-26T10:50:03.161Z,1030.34
2019-03-26T11:00:04.171Z,1030.38
2019-03-26T11:10:03.417Z,1030.31
2019-03-26T11:20:03.264Z,1030.34
2019-03-26T11:30:04.191Z,1030.32
2019-03-26T11:40:02.816Z,1030.31
2019-03-26T11:50:05.692Z,1030.29
2019-03-26T12:00:04.248Z,1030.19
2019-03-26T12:10:02.883Z,1030.11
2019-03-26T12:20:03.751Z,1030.02
2019-03-26T12:30:04.523Z,1030.15
2019-03-26T12:40:03.508Z,1030.19
2019-03-26T12:50:03.244Z,1030.08
2019-03-26T13:00:04.475Z,1029.98
2019-03-26T13:10:15.022Z,1029.76
2019-03-26T13:20:03.678Z,1029.81
2019-03-26T13:30:03.996Z,1029.76
2019-03-26T13:40:03.197Z,1029.65
2019-03-26T13:50:03.731Z,1029.60
2019-03-26T14:00:04.181Z,1029.45
2019-03-26T14:10:03.825Z,1029.55
2019-03-26T14:20:06.701Z,1029.32
2019-03-26T14:30:07.484Z,1029.34
2019-03-26T14:40:05.200Z,1029.21
2019-03-26T14:50:03.620Z,1029.19
2019-03-26T15:00:04.411Z,1029.25
2019-03-26T15:10:03.138Z,1029.33
2019-03-26T15:20:02.856Z,1029.25
2019-03-26T15:30:04.415Z,1029.31
2019-03-26T15:40:03.418Z,1029.28
2019-03-26T15:50:02.882Z,1029.22
2019-03-26T16:00:04.084Z,1029.34
2019-03-26T16:10:02.832Z,1029.38
2019-03-26T16:20:03.748Z,1029.50
2019-03-26T16:30:04.606Z,1029.47
2019-03-26T16:40:03.434Z,1029.62
2019-03-26T16:50:03.410Z,1029.69
2019-03-26T17:00:03.635Z,1029.66
2019-03-26T17:10:03.119Z,1029.71
2019-03-26T17:20:03.974Z,1029.78
2019-03-26T17:30:04.423Z,1029.79
2019-03-26T17:40:03.017Z,1029.80
2019-03-26T17:50:03.510Z,1029.96
2019-03-26T18:00:04.431Z,1030.09
2019-03-26T18:10:02.971Z,1030.14
2019-03-26T18:20:03.784Z,1030.20
2019-03-26T18:30:04.465Z,1030.21
2019-03-26T18:40:03.147Z,1030.43
2019-03-26T18:50:02.966Z,1030.44
2019-03-26T19:00:03.623Z,1030.43
2019-03-26T19:10:02.895Z,1030.50
2019-03-26T19:20:03.898Z,1030.55
2019-03-26T19:30:04.419Z,1030.53
2019-03-26T19:40:03.828Z,1030.55
2019-03-26T19:50:03.755Z,1030.51
2019-03-26T20:00:04.365Z,1030.53
2019-03-26T20:10:03.559Z,1030.62
2019-03-26T20:20:03.743Z,1030.72
2019-03-26T20:30:04.485Z,1030.75
2019-03-26T20:40:03.288Z,1030.86
2019-03-26T20:50:03.812Z,1030.95
2019-03-26T21:00:04.786Z,1030.92
2019-03-26T21:10:03.807Z,1031.03
2019-03-26T21:20:03.457Z,1031.09
2019-03-26T21:30:16.177Z,1031.09
2019-03-26T21:40:02.839Z,1031.18
2019-03-26T21:50:03.712Z,1031.10
2019-03-26T22:00:03.714Z,1031.11
2019-03-26T22:10:04.789Z,1031.09
2019-03-26T22:20:03.707Z,1031.25
2019-03-26T22:30:04.699Z,1031.54
2019-03-26T22:40:02.991Z,1031.59
2019-03-26T22:50:03.010Z,1031.49
2019-03-26T23:00:04.239Z,1031.54
2019-03-26T23:10:03.330Z,1031.44
2019-03-26T23:20:03.024Z,1031.39
2019-03-26T23:30:04.656Z,1031.46
2019-03-26T23:40:03.441Z,1031.53
2019-03-26T23:50:03.020Z,1031.49
